| Date | Time | Temp. (oF) | Dew Point (oF) | Rel. Hum. (%) | Press. (in.) | Wind Dir. | Wind Speed (mph) | Hourly Rainfall (in.) |
|
|---|---|---|---|---|---|---|---|---|---|
| 1 | 02/16 | 00:00 | 46 | 30 | 55 | 29.95 | SSW | 5 | 0.00 |
| 2 | 02/15 | 23:00 | 46 | 30 | 55 | 29.96 | SSW | 12 | 0.00 |
| 3 | 02/15 | 22:00 | 46 | 31 | 56 | 29.98 | SSW | 10 | 0.00 |
| 4 | 02/15 | 21:00 | 45 | 30 | 57 | 29.98 | S | 10 | 0.00 |
| 5 | 02/15 | 20:00 | 45 | 31 | 59 | 30.00 | S | 7 | 0.00 |
| 6 | 02/15 | 19:00 | 45 | 31 | 58 | 30.01 | S | 5 | 0.00 |
| 7 | 02/15 | 18:00 | 45 | 31 | 59 | 30.01 | S | 5 | 0.00 |
| 8 | 02/15 | 17:00 | 46 | 32 | 58 | 30.00 | SSE | 6 | 0.00 |
| 9 | 02/15 | 16:00 | 47 | 31 | 55 | 30.02 | SSE | 10 | 0.00 |
| 10 | 02/15 | 15:00 | 47 | 31 | 55 | 30.03 | S | 12 | 0.00 |
| 11 | 02/15 | 14:00 | 47 | 29 | 51 | 30.06 | S | 6 | 0.00 |
| 12 | 02/15 | 13:00 | 45 | 30 | 56 | 30.11 | SSE | 8 | 0.00 |
| 13 | 02/15 | 12:00 | 43 | 29 | 59 | 30.15 | SSW | 10 | 0.00 |
| 14 | 02/15 | 11:00 | 41 | 28 | 62 | 30.19 | S | 14 | 0.00 |
| 15 | 02/15 | 10:00 | 38 | 27 | 65 | 30.22 | SW | 8 | 0.00 |
| 16 | 02/15 | 09:00 | 34 | 27 | 77 | 30.26 | S | 4 | 0.00 |
| 17 | 02/15 | 08:00 | 32 | 27 | 82 | 30.27 | S | 7 | 0.00 |
| 18 | 02/15 | 07:00 | 31 | 26 | 82 | 30.28 | SSW | 9 | 0.00 |
| 19 | 02/15 | 06:00 | 31 | 25 | 80 | 30.29 | S | 5 | 0.00 |
| 20 | 02/15 | 05:00 | 31 | 24 | 78 | 30.30 | SSE | 4 | 0.00 |
| 21 | 02/15 | 04:00 | 31 | 24 | 75 | 30.31 | SSW | 5 | 0.00 |
| 22 | 02/15 | 03:00 | 30 | 21 | 70 | 30.31 | S | 7 | 0.00 |
| 23 | 02/15 | 02:00 | 31 | 19 | 62 | 30.33 | S | 4 | 0.00 |
| 24 | 02/15 | 01:00 | 31 | 18 | 59 | 30.34 | SSW | 6 | 0.00 |